createdAt,value
2018-02-18T00:02:15.349Z,2.83
2018-02-18T00:04:43.666Z,2.55
2018-02-18T00:07:11.948Z,2.31
2018-02-18T00:09:40.270Z,2.39
2018-02-18T00:12:08.512Z,2.53
2018-02-18T00:14:37.764Z,2.47
2018-02-18T00:17:06.071Z,2.53
2018-02-18T00:19:34.377Z,2.50
2018-02-18T00:22:02.680Z,2.40
2018-02-18T00:24:30.950Z,2.50
2018-02-18T00:26:59.250Z,2.49
2018-02-18T00:29:27.656Z,2.56
2018-02-18T00:31:56.010Z,2.59
2018-02-18T00:34:24.294Z,2.28
2018-02-18T00:36:52.587Z,2.27
2018-02-18T00:39:20.864Z,2.16
2018-02-18T00:41:49.166Z,2.05
2018-02-18T00:44:17.423Z,1.95
2018-02-18T00:46:45.728Z,2.02
2018-02-18T00:49:14.016Z,2.00
2018-02-18T00:51:42.328Z,2.20
2018-02-18T00:54:10.629Z,2.26
2018-02-18T00:56:38.906Z,2.38
2018-02-18T00:59:07.189Z,2.51
2018-02-18T01:01:35.453Z,2.44
2018-02-18T01:04:03.762Z,2.43
2018-02-18T01:06:32.053Z,2.51
2018-02-18T01:09:00.359Z,2.57
2018-02-18T01:11:28.672Z,2.43
2018-02-18T01:13:57.011Z,2.48
2018-02-18T01:16:25.328Z,2.47
2018-02-18T01:18:53.604Z,2.56
2018-02-18T01:21:21.926Z,2.71
2018-02-18T01:23:50.226Z,2.79
2018-02-18T01:26:18.546Z,2.64
2018-02-18T01:28:46.812Z,2.63
2018-02-18T01:31:15.143Z,2.49
2018-02-18T01:33:43.396Z,2.74
2018-02-18T01:36:11.701Z,2.52
2018-02-18T01:38:40.005Z,2.59
2018-02-18T01:41:08.299Z,2.56
2018-02-18T01:43:36.560Z,2.52
2018-02-18T01:46:05.217Z,2.52
2018-02-18T01:48:33.522Z,2.59
2018-02-18T01:51:01.872Z,2.70
2018-02-18T01:53:30.142Z,2.57
2018-02-18T01:55:58.500Z,2.54
2018-02-18T01:58:26.796Z,2.43
2018-02-18T02:00:55.111Z,2.36
2018-02-18T02:03:23.384Z,2.29
2018-02-18T02:05:51.676Z,2.45
2018-02-18T02:08:19.979Z,2.28
2018-02-18T02:10:48.258Z,2.46
2018-02-18T02:13:16.566Z,2.41
2018-02-18T02:15:45.096Z,2.30
2018-02-18T02:18:13.420Z,2.23
2018-02-18T02:20:41.707Z,2.21
2018-02-18T02:23:10.003Z,2.40
2018-02-18T02:25:38.303Z,2.16
2018-02-18T02:28:06.628Z,2.00
2018-02-18T02:30:34.898Z,1.87
2018-02-18T02:33:03.192Z,1.85
2018-02-18T02:35:31.632Z,1.73
2018-02-18T02:37:59.902Z,1.22
2018-02-18T02:40:28.369Z,1.14
2018-02-18T02:42:56.660Z,1.30
2018-02-18T02:45:24.996Z,1.11
2018-02-18T02:47:53.263Z,1.19
2018-02-18T02:50:21.556Z,1.32
2018-02-18T02:52:49.852Z,1.45
2018-02-18T02:55:18.171Z,1.39
2018-02-18T02:57:46.457Z,1.41
2018-02-18T03:00:14.755Z,1.61
2018-02-18T03:02:43.056Z,1.90
2018-02-18T03:05:11.342Z,2.17
2018-02-18T03:07:39.617Z,2.18
2018-02-18T03:10:07.932Z,1.93
2018-02-18T03:12:36.207Z,1.79
2018-02-18T03:15:05.134Z,1.41
2018-02-18T03:17:33.416Z,1.61
2018-02-18T03:20:01.707Z,1.88
2018-02-18T03:22:30.037Z,2.12
2018-02-18T03:24:58.327Z,2.38
2018-02-18T03:27:26.627Z,2.54
2018-02-18T03:29:54.915Z,2.29
2018-02-18T03:32:23.208Z,2.13
2018-02-18T03:34:51.522Z,1.82
2018-02-18T03:37:19.828Z,1.71
2018-02-18T03:39:48.099Z,1.96
2018-02-18T03:42:16.382Z,2.02
2018-02-18T03:44:44.656Z,2.08
2018-02-18T03:47:12.967Z,1.87
2018-02-18T03:49:41.565Z,1.76
2018-02-18T03:52:09.834Z,1.61
2018-02-18T03:54:38.137Z,1.62
2018-02-18T03:57:06.426Z,1.58
2018-02-18T03:59:34.738Z,1.34
2018-02-18T04:02:03.082Z,1.44
2018-02-18T04:04:31.379Z,1.48
2018-02-18T04:06:59.645Z,1.33
2018-02-18T04:09:27.932Z,1.10
2018-02-18T04:11:56.200Z,0.84
2018-02-18T04:14:24.499Z,1.05
2018-02-18T04:16:52.768Z,1.12
2018-02-18T04:19:21.062Z,1.04
2018-02-18T04:21:49.328Z,0.98
2018-02-18T04:24:18.356Z,1.25
2018-02-18T04:26:46.651Z,1.35
2018-02-18T04:29:14.919Z,1.40
2018-02-18T04:31:43.216Z,1.38
2018-02-18T04:34:11.489Z,1.74
2018-02-18T04:36:39.779Z,1.84
2018-02-18T04:39:08.056Z,1.52
2018-02-18T04:41:36.356Z,1.10
2018-02-18T04:44:05.455Z,1.18
2018-02-18T04:46:33.760Z,1.36
2018-02-18T04:49:02.071Z,1.52
2018-02-18T04:51:30.356Z,1.54
2018-02-18T04:53:58.708Z,1.36
2018-02-18T04:56:27.000Z,1.35
2018-02-18T04:58:55.331Z,1.27
2018-02-18T05:01:23.592Z,1.35
2018-02-18T05:03:51.879Z,1.45
2018-02-18T05:06:20.164Z,1.56
2018-02-18T05:08:48.466Z,1.12
2018-02-18T05:11:16.728Z,1.03
2018-02-18T05:13:45.016Z,0.64
2018-02-18T05:16:13.291Z,0.44
2018-02-18T05:18:41.582Z,0.42
2018-02-18T05:21:09.845Z,0.55
2018-02-18T05:23:38.152Z,0.57
2018-02-18T05:26:06.488Z,0.35
2018-02-18T05:28:35.606Z,0.30
2018-02-18T05:31:03.904Z,0.28
2018-02-18T05:33:32.178Z,0.28
2018-02-18T05:36:00.464Z,0.46
2018-02-18T05:38:28.720Z,0.54
2018-02-18T05:40:57.021Z,0.69
2018-02-18T05:43:25.272Z,0.75
2018-02-18T05:45:53.579Z,0.76
2018-02-18T05:48:21.838Z,0.77
2018-02-18T05:50:50.099Z,0.62
2018-02-18T05:53:18.391Z,0.77
2018-02-18T05:55:46.654Z,0.89
2018-02-18T05:58:14.977Z,0.59
2018-02-18T06:00:43.244Z,0.62
2018-02-18T06:03:11.531Z,0.60
2018-02-18T06:05:39.791Z,0.57
2018-02-18T06:08:08.099Z,0.54
2018-02-18T06:10:36.380Z,0.46
2018-02-18T06:13:05.020Z,0.49
2018-02-18T06:15:33.292Z,0.50
2018-02-18T06:18:01.568Z,0.55
2018-02-18T06:20:29.860Z,0.60
2018-02-18T06:22:58.143Z,0.53
2018-02-18T06:25:26.481Z,0.67
2018-02-18T06:27:54.734Z,0.47
2018-02-18T06:30:22.995Z,0.28
2018-02-18T06:32:51.292Z,0.28
2018-02-18T06:35:19.582Z,0.29
2018-02-18T06:37:47.840Z,0.30
2018-02-18T06:40:16.309Z,0.34
2018-02-18T06:42:44.597Z,0.25
2018-02-18T06:45:12.862Z,0.22
2018-02-18T06:47:41.168Z,0.05
2018-02-18T06:50:09.442Z,0.02
2018-02-18T06:52:37.740Z,0.22
2018-02-18T06:55:06.041Z,0.28
2018-02-18T06:57:34.315Z,0.33
2018-02-18T07:00:02.607Z,0.36
2018-02-18T07:02:30.918Z,0.36
2018-02-18T07:04:59.223Z,0.45
2018-02-18T07:07:27.531Z,0.28
2018-02-18T07:09:55.827Z,0.37
2018-02-18T07:12:24.098Z,0.58
2018-02-18T07:14:52.707Z,0.64
2018-02-18T07:17:20.982Z,0.57
2018-02-18T07:19:49.287Z,0.47
2018-02-18T07:22:17.552Z,0.54
2018-02-18T07:24:45.824Z,0.52
2018-02-18T07:27:14.163Z,0.47
2018-02-18T07:29:42.453Z,0.37
2018-02-18T07:32:10.753Z,0.38
2018-02-18T07:34:39.032Z,0.40
2018-02-18T07:37:07.315Z,0.42
2018-02-18T07:39:35.587Z,0.31
2018-02-18T07:42:04.963Z,0.26
2018-02-18T07:44:33.248Z,0.28
2018-02-18T07:47:01.540Z,0.39
2018-02-18T07:51:57.212Z,0.44
2018-02-18T07:54:25.595Z,0.49
2018-02-18T07:56:53.877Z,0.60
2018-02-18T07:59:22.179Z,0.68
2018-02-18T08:01:50.475Z,0.59
2018-02-18T08:04:18.784Z,0.82
2018-02-18T08:09:14.444Z,0.77
2018-02-18T08:11:42.719Z,0.94
2018-02-18T08:14:11.030Z,1.03
2018-02-18T08:16:39.305Z,0.97
2018-02-18T08:19:07.616Z,0.92
2018-02-18T08:21:35.879Z,0.94
2018-02-18T08:24:04.994Z,1.03
2018-02-18T08:26:33.251Z,1.07
2018-02-18T08:29:01.556Z,1.10
2018-02-18T08:31:29.852Z,1.21
2018-02-18T08:33:58.165Z,1.43
2018-02-18T08:36:26.442Z,1.43
2018-02-18T08:38:54.723Z,1.58
2018-02-18T08:41:23.014Z,1.64
2018-02-18T08:43:51.284Z,1.77
2018-02-18T08:46:19.625Z,1.86
2018-02-18T08:48:47.901Z,1.93
2018-02-18T08:51:16.203Z,2.05
2018-02-18T08:53:44.480Z,2.09
2018-02-18T08:56:12.804Z,2.22
2018-02-18T08:58:41.108Z,2.20
2018-02-18T09:01:09.373Z,2.12
2018-02-18T09:03:37.682Z,2.11
2018-02-18T09:06:05.962Z,2.31
2018-02-18T09:08:34.257Z,2.53
2018-02-18T09:11:02.523Z,2.57
2018-02-18T09:13:30.871Z,2.61
2018-02-18T09:15:59.163Z,2.50
2018-02-18T09:18:27.704Z,2.45
2018-02-18T09:20:56.076Z,2.62
2018-02-18T09:23:24.368Z,2.80
2018-02-18T09:25:52.728Z,2.92
2018-02-18T09:28:21.130Z,3.04
2018-02-18T09:30:49.486Z,3.08
2018-02-18T09:33:17.919Z,3.28
2018-02-18T09:35:46.292Z,3.25
2018-02-18T09:38:14.569Z,3.36
2018-02-18T09:40:42.892Z,3.60
2018-02-18T09:43:11.281Z,3.67
2018-02-18T09:45:39.596Z,3.75
2018-02-18T09:48:07.852Z,3.78
2018-02-18T09:50:36.134Z,3.95
2018-02-18T09:53:05.152Z,3.94
2018-02-18T09:55:34.152Z,3.95
2018-02-18T09:58:02.451Z,4.06
2018-02-18T10:00:30.762Z,4.16
2018-02-18T10:02:59.039Z,4.31
2018-02-18T10:05:27.352Z,4.43
2018-02-18T10:07:55.669Z,4.54
2018-02-18T10:10:23.972Z,4.59
2018-02-18T10:12:52.288Z,4.63
2018-02-18T10:15:20.559Z,4.54
2018-02-18T10:17:48.868Z,4.62
2018-02-18T10:20:17.190Z,4.88
2018-02-18T10:22:45.485Z,4.81
2018-02-18T10:25:13.851Z,4.72
2018-02-18T10:27:42.089Z,4.78
2018-02-18T10:30:10.384Z,4.53
2018-02-18T10:32:39.487Z,4.54
2018-02-18T10:35:07.831Z,4.76
2018-02-18T10:37:36.076Z,4.88
2018-02-18T10:40:04.387Z,4.94
2018-02-18T10:42:32.688Z,5.07
2018-02-18T10:45:01.008Z,5.13
2018-02-18T10:47:30.079Z,5.05
2018-02-18T10:49:58.353Z,4.93
2018-02-18T10:52:26.697Z,4.83
2018-02-18T10:54:54.934Z,5.13
2018-02-18T10:57:23.205Z,5.14
2018-02-18T10:59:51.544Z,5.14
2018-02-18T11:02:19.839Z,5.11
2018-02-18T11:04:48.127Z,5.11
2018-02-18T11:07:16.396Z,5.13
2018-02-18T11:09:44.776Z,5.11
2018-02-18T11:12:13.048Z,5.07
2018-02-18T11:14:41.296Z,5.13
2018-02-18T11:17:09.623Z,5.20
2018-02-18T11:19:37.936Z,5.31
2018-02-18T11:22:06.228Z,5.40
2018-02-18T11:24:34.499Z,5.55
2018-02-18T11:27:02.793Z,5.50
2018-02-18T11:29:31.056Z,5.57
2018-02-18T11:31:59.350Z,5.45
2018-02-18T11:34:27.737Z,5.41
2018-02-18T11:36:56.020Z,5.48
2018-02-18T11:39:24.300Z,5.41
2018-02-18T11:41:52.643Z,5.60
2018-02-18T11:44:20.918Z,5.53
2018-02-18T11:46:49.216Z,5.60
2018-02-18T11:49:17.536Z,5.66
2018-02-18T11:51:45.844Z,5.74
2018-02-18T11:54:14.160Z,5.79
2018-02-18T11:56:42.437Z,5.89
2018-02-18T11:59:10.808Z,6.05
2018-02-18T12:01:39.108Z,6.08
2018-02-18T12:04:07.468Z,6.16
2018-02-18T12:06:36.579Z,6.25
2018-02-18T12:09:05.361Z,6.39
2018-02-18T12:11:33.741Z,6.47
2018-02-18T12:14:01.985Z,6.54
2018-02-18T12:16:30.347Z,6.58
2018-02-18T12:18:58.656Z,6.56
2018-02-18T12:21:26.939Z,6.67
2018-02-18T12:23:55.246Z,6.62
2018-02-18T12:26:23.580Z,6.54
2018-02-18T12:28:51.847Z,6.50
2018-02-18T12:31:20.192Z,6.84
2018-02-18T12:33:48.520Z,7.02
2018-02-18T12:36:16.814Z,7.18
2018-02-18T12:38:45.071Z,7.14
2018-02-18T12:41:13.453Z,6.95
2018-02-18T12:43:41.732Z,6.71
2018-02-18T12:46:10.032Z,6.91
2018-02-18T12:48:38.349Z,6.90
2018-02-18T12:51:06.639Z,6.97
2018-02-18T12:53:34.952Z,7.10
2018-02-18T12:56:03.249Z,7.03
2018-02-18T12:58:31.586Z,6.91
2018-02-18T13:00:59.875Z,6.82
2018-02-18T13:03:28.232Z,6.91
2018-02-18T13:05:56.549Z,7.09
2018-02-18T13:08:24.958Z,7.09
2018-02-18T13:10:53.266Z,7.32
2018-02-18T13:13:21.559Z,7.32
2018-02-18T13:15:49.899Z,7.48
2018-02-18T13:18:18.277Z,7.49
2018-02-18T13:20:46.625Z,7.38
2018-02-18T13:23:14.953Z,7.34
2018-02-18T13:25:43.292Z,7.37
2018-02-18T13:28:11.658Z,7.45
2018-02-18T13:30:40.427Z,7.55
2018-02-18T13:33:08.890Z,7.62
2018-02-18T13:35:37.241Z,7.81
2018-02-18T13:38:05.670Z,8.01
2018-02-18T13:40:33.989Z,8.38
2018-02-18T13:43:02.334Z,8.34
2018-02-18T13:45:30.730Z,8.53
2018-02-18T13:47:59.866Z,8.72
2018-02-18T13:50:28.160Z,8.72
2018-02-18T13:52:56.484Z,8.60
2018-02-18T13:55:24.816Z,8.69
2018-02-18T13:57:53.093Z,8.56
2018-02-18T14:00:21.405Z,8.22
2018-02-18T14:02:49.692Z,8.13
2018-02-18T14:05:18.011Z,8.01
2018-02-18T14:07:46.330Z,7.92
2018-02-18T14:10:14.631Z,7.69
2018-02-18T14:12:42.951Z,7.65
2018-02-18T14:15:11.268Z,7.56
2018-02-18T14:17:39.544Z,7.37
2018-02-18T14:20:07.899Z,7.28
2018-02-18T14:22:36.248Z,7.26
2018-02-18T14:25:04.572Z,7.22
2018-02-18T14:27:32.909Z,7.16
2018-02-18T14:30:01.261Z,7.05
2018-02-18T14:32:29.999Z,7.11
2018-02-18T14:34:58.323Z,6.96
2018-02-18T14:37:26.655Z,6.94
2018-02-18T14:39:54.928Z,6.96
2018-02-18T14:42:34.904Z,7.04
2018-02-18T14:45:15.048Z,7.15
2018-02-18T14:50:56.468Z,7.15
2018-02-18T14:53:36.563Z,7.04
2018-02-18T14:59:09.699Z,6.96
2018-02-18T15:01:38.084Z,6.89
2018-02-18T15:04:06.941Z,6.86
2018-02-18T15:06:35.227Z,6.99
2018-02-18T15:09:03.611Z,6.92
2018-02-18T15:11:31.899Z,6.94
2018-02-18T15:14:00.197Z,6.97
2018-02-18T15:16:28.498Z,6.91
2018-02-18T15:18:56.849Z,6.85
2018-02-18T15:21:25.157Z,6.95
2018-02-18T15:23:53.436Z,7.04
2018-02-18T15:26:21.740Z,6.90
2018-02-18T15:28:50.027Z,6.77
2018-02-18T15:31:18.323Z,6.73
2018-02-18T15:33:46.660Z,6.69
2018-02-18T15:36:14.989Z,6.70
2018-02-18T15:38:43.268Z,6.70
2018-02-18T15:41:11.620Z,6.69
2018-02-18T15:43:39.924Z,6.67
2018-02-18T15:46:08.220Z,6.70
2018-02-18T15:48:36.518Z,6.72
2018-02-18T15:51:04.822Z,6.71
2018-02-18T15:53:33.149Z,6.71
2018-02-18T15:56:01.428Z,6.69
2018-02-18T15:58:29.759Z,6.63
2018-02-18T16:00:58.056Z,6.62
2018-02-18T16:03:27.222Z,6.57
2018-02-18T16:05:55.500Z,6.44
2018-02-18T16:08:23.865Z,6.42
2018-02-18T16:10:52.175Z,6.39
2018-02-18T16:13:20.446Z,6.36
2018-02-18T16:15:48.813Z,6.35
2018-02-18T16:18:18.131Z,6.39
2018-02-18T16:20:46.459Z,6.37
2018-02-18T16:23:14.876Z,6.27
2018-02-18T16:25:43.242Z,6.24
2018-02-18T16:28:11.728Z,6.04
2018-02-18T16:30:40.138Z,6.10
2018-02-18T16:33:08.414Z,6.13
2018-02-18T16:35:37.671Z,6.17
2018-02-18T16:38:05.996Z,6.15
2018-02-18T16:40:34.319Z,6.09
2018-02-18T16:43:02.920Z,6.11
2018-02-18T16:45:31.209Z,6.13
2018-02-18T16:48:00.307Z,6.04
2018-02-18T16:50:28.601Z,6.02
2018-02-18T16:52:57.363Z,5.92
2018-02-18T16:55:26.402Z,5.91
2018-02-18T16:57:54.741Z,5.88
2018-02-18T17:00:23.001Z,5.87
2018-02-18T17:02:51.922Z,5.87
2018-02-18T17:05:20.283Z,5.74
2018-02-18T17:07:48.593Z,5.69
2018-02-18T17:10:16.894Z,5.69
2018-02-18T17:12:45.203Z,5.63
2018-02-18T17:15:13.485Z,5.64
2018-02-18T17:17:41.803Z,5.57
2018-02-18T17:20:10.116Z,5.30
2018-02-18T17:22:38.458Z,5.24
2018-02-18T17:25:06.875Z,5.14
2018-02-18T17:27:35.151Z,5.14
2018-02-18T17:30:04.083Z,5.11
2018-02-18T17:32:32.490Z,4.89
2018-02-18T17:35:00.811Z,5.14
2018-02-18T17:37:29.148Z,5.14
2018-02-18T17:39:57.460Z,5.02
2018-02-18T17:42:25.756Z,5.01
2018-02-18T17:44:54.100Z,5.00
2018-02-18T17:47:22.485Z,5.02
2018-02-18T17:49:50.972Z,5.10
2018-02-18T17:52:19.336Z,5.03
2018-02-18T17:54:47.687Z,5.02
2018-02-18T17:57:16.091Z,4.99
2018-02-18T17:59:44.377Z,4.99
2018-02-18T18:02:12.717Z,4.83
2018-02-18T18:04:41.085Z,4.97
2018-02-18T18:07:09.347Z,4.96
2018-02-18T18:09:37.698Z,4.89
2018-02-18T18:12:05.960Z,4.85
2018-02-18T18:14:34.257Z,4.87
2018-02-18T18:17:02.523Z,4.85
2018-02-18T18:19:30.807Z,4.86
2018-02-18T18:21:59.080Z,4.86
2018-02-18T18:24:27.372Z,4.87
2018-02-18T18:26:55.631Z,4.83
2018-02-18T18:29:23.920Z,4.68
2018-02-18T18:31:52.242Z,4.52
2018-02-18T18:34:20.521Z,4.59
2018-02-18T18:36:48.822Z,4.60
2018-02-18T18:39:17.161Z,4.54
2018-02-18T18:41:45.474Z,4.34
2018-02-18T18:44:13.756Z,4.45
2018-02-18T18:46:42.055Z,4.44
2018-02-18T18:49:10.339Z,4.50
2018-02-18T18:51:38.735Z,4.65
2018-02-18T18:54:06.990Z,4.77
2018-02-18T18:56:35.293Z,4.85
2018-02-18T18:59:03.922Z,4.74
2018-02-18T19:01:32.198Z,4.71
2018-02-18T19:04:00.487Z,4.68
2018-02-18T19:06:28.749Z,4.74
2018-02-18T19:08:57.040Z,4.69
2018-02-18T19:11:25.316Z,4.69
2018-02-18T19:13:53.600Z,4.73
2018-02-18T19:16:21.861Z,4.63
2018-02-18T19:18:50.193Z,4.62
2018-02-18T19:21:18.509Z,4.65
2018-02-18T19:23:46.780Z,4.47
2018-02-18T19:26:15.060Z,4.49
2018-02-18T19:28:43.356Z,4.54
2018-02-18T19:31:11.658Z,4.64
2018-02-18T19:33:39.941Z,4.70
2018-02-18T19:36:08.188Z,4.62
2018-02-18T19:38:36.439Z,4.63
2018-02-18T19:41:04.737Z,4.67
2018-02-18T19:43:33.000Z,4.66
2018-02-18T19:46:01.321Z,4.65
2018-02-18T19:48:29.588Z,4.59
2018-02-18T19:50:57.891Z,4.48
2018-02-18T19:53:26.199Z,4.63
2018-02-18T19:55:54.491Z,4.66
2018-02-18T19:58:22.770Z,4.57
2018-02-18T20:00:51.078Z,4.55
2018-02-18T20:03:19.350Z,4.52
2018-02-18T20:05:47.686Z,4.44
2018-02-18T20:08:15.971Z,4.46
2018-02-18T20:10:44.256Z,4.46
2018-02-18T20:13:12.559Z,4.31
2018-02-18T20:15:40.816Z,4.19
2018-02-18T20:18:09.117Z,4.01
2018-02-18T20:20:37.403Z,4.04
2018-02-18T20:23:05.694Z,4.16
2018-02-18T20:25:33.980Z,4.22
2018-02-18T20:28:02.280Z,4.23
2018-02-18T20:30:30.587Z,4.23
2018-02-18T20:32:58.865Z,4.24
2018-02-18T20:35:27.124Z,4.29
2018-02-18T20:37:55.422Z,4.40
2018-02-18T20:40:23.683Z,4.34
2018-02-18T20:42:51.971Z,4.40
2018-02-18T20:45:20.233Z,4.35
2018-02-18T20:47:48.530Z,4.47
2018-02-18T20:50:16.820Z,4.54
2018-02-18T20:52:45.129Z,4.41
2018-02-18T20:55:13.415Z,4.06
2018-02-18T20:57:41.700Z,4.15
2018-02-18T21:00:09.981Z,4.26
2018-02-18T21:02:38.348Z,4.18
2018-02-18T21:05:06.612Z,4.28
2018-02-18T21:07:34.872Z,4.29
2018-02-18T21:10:03.182Z,4.33
2018-02-18T21:12:31.451Z,4.15
2018-02-18T21:14:59.905Z,4.04
2018-02-18T21:17:28.246Z,3.95
2018-02-18T21:19:56.582Z,4.11
2018-02-18T21:22:24.860Z,4.24
2018-02-18T21:24:53.198Z,4.20
2018-02-18T21:27:21.511Z,4.38
2018-02-18T21:29:49.774Z,4.44
2018-02-18T21:32:18.068Z,4.33
2018-02-18T21:34:46.336Z,4.33
2018-02-18T21:37:14.944Z,4.18
2018-02-18T21:39:43.203Z,4.12
2018-02-18T21:42:11.500Z,4.19
2018-02-18T21:44:39.761Z,4.23
2018-02-18T21:47:08.054Z,4.35
2018-02-18T21:49:36.325Z,4.40
2018-02-18T21:52:04.606Z,4.46
2018-02-18T21:54:32.862Z,4.47
2018-02-18T21:57:01.171Z,4.45
2018-02-18T21:59:29.480Z,4.42
2018-02-18T22:01:57.771Z,4.45
2018-02-18T22:04:26.100Z,4.54
2018-02-18T22:06:54.367Z,4.62
2018-02-18T22:09:22.684Z,4.68
2018-02-18T22:11:50.925Z,4.70
2018-02-18T22:14:19.212Z,4.70
2018-02-18T22:16:47.496Z,4.52
2018-02-18T22:19:15.779Z,4.46
2018-02-18T22:21:44.067Z,4.35
2018-02-18T22:24:12.360Z,4.27
2018-02-18T22:26:40.643Z,4.32
2018-02-18T22:29:08.937Z,4.43
2018-02-18T22:31:37.204Z,4.35
2018-02-18T22:34:05.483Z,4.36
2018-02-18T22:36:33.750Z,4.36
2018-02-18T22:39:02.032Z,6.63
2018-02-18T22:41:30.295Z,9.40
2018-02-18T22:43:58.587Z,11.46
2018-02-18T22:46:26.896Z,11.80
2018-02-18T22:48:55.175Z,11.71
2018-02-18T22:51:23.481Z,12.00
2018-02-18T22:53:52.086Z,12.89
2018-02-18T22:56:20.383Z,12.74
2018-02-18T22:58:48.704Z,9.98
2018-02-18T23:01:16.936Z,8.07
2018-02-18T23:03:45.289Z,6.49
2018-02-18T23:06:13.504Z,5.86
2018-02-18T23:08:41.813Z,5.52
2018-02-18T23:11:10.128Z,5.42
2018-02-18T23:13:38.406Z,5.34
2018-02-18T23:16:06.724Z,5.17
2018-02-18T23:18:34.987Z,5.06
2018-02-18T23:21:09.324Z,4.99
2018-02-18T23:23:37.568Z,4.94
2018-02-18T23:26:05.851Z,4.89
2018-02-18T23:28:34.205Z,4.84
2018-02-18T23:31:02.538Z,4.86
2018-02-18T23:33:30.874Z,4.87
2018-02-18T23:35:59.136Z,4.78
2018-02-18T23:38:27.466Z,4.70
2018-02-18T23:40:55.748Z,4.73
2018-02-18T23:43:24.086Z,4.78
2018-02-18T23:45:52.394Z,4.82
2018-02-18T23:48:20.726Z,4.78
2018-02-18T23:50:49.103Z,4.80
2018-02-18T23:53:17.384Z,4.79
2018-02-18T23:55:45.756Z,4.70
2018-02-18T23:58:14.037Z,4.62
